Hlavní strana
METAR-TAF:

METAR-TAF

Letiště :

Reykjavík, Island

Letiště Reykjavík

zeměpisná šířka: 64-08N, zeměpisná délka: 021-54W, výška: 54 m

Aktuální stav počasí

Zpráva byla vytvořena před 45 minutami, v 03:00 UTC
Východní vítr 14 kt
Teplota 2°C
Vlhkost vzduchu 80%
Tlak 982 hPa
Viditelnost 10 km a více
Oblačno až skoro zataženo ve výšce 2000 ft
Zataženo ve výšce 2500 ft
slabý déšť, sníh

METAR: BIRK 230300Z 10014KT 9999 -RASN BKN020 OVC025 02/M01 Q0982

Čas: 03:45 (03:45 UTC)

Předpověď počasí

Zpráva byla vytvořena před 2 hodinami a 34 minutami, v 01:11 UTC
Předpověď platná od 23 v 03 UTC do 24 v 03 UTC
Východojihovýchodní vítr 12 kt
Viditelnost 10 km a více
Oblačno až skoro zataženo ve výšce 1500 ft
Zataženo ve výšce 3000 ft
slabý déšť, sníh
Změna
od 23 v 03 UTC do 23 v 06 UTC
Viditelnost 10 km a více
Polojasno ve výšce 2000 ft
Oblačno až skoro zataženo ve výšce 3000 ft

TAF: BIRK 230111Z 2303/2403 12012KT 9999 -RASN BKN015 OVC030 TX03/2303Z TNM01/2318Z BECMG 2303/2306 9999 NSW SCT020 BKN030

Stav a předpovědi počasí z více než 4 000 letišť (zprávy METAR a TAF).

Červené a žluté tečky na mapě představují dostupné meteorologické stanice.

Když kurzor umístíte na tečku, zobrazí se název stanice.

Pak kliknutím zobrazíte stav a předpověď počasí.

Chcete-li změnit mapu, kliknutím na zelené tlačítko se znaménkem +mapu přiblížíte, kliknutím na zelené tlačítko se znaménkem – mapu oddálíte a kliknutím na zelené šipky přejdete na sousední mapy.


METAR-TAF: